createdAt,value
2022-08-09T00:00:18.237Z,0.00
2022-08-09T00:01:18.259Z,0.00
2022-08-09T00:02:18.198Z,0.00
2022-08-09T00:04:08.509Z,0.00
2022-08-09T00:04:34.801Z,0.00
2022-08-09T00:06:15.983Z,0.00
2022-08-09T00:06:23.107Z,0.00
2022-08-09T00:07:18.122Z,0.00
2022-08-09T00:08:31.536Z,0.00
2022-08-09T00:09:19.073Z,0.00
2022-08-09T00:10:21.473Z,0.00
2022-08-09T00:11:24.120Z,0.00
2022-08-09T00:12:22.726Z,0.00
2022-08-09T00:13:18.149Z,0.00
2022-08-09T00:14:21.910Z,0.00
2022-08-09T00:15:19.002Z,0.00
2022-08-09T00:16:18.003Z,0.00
2022-08-09T00:18:05.381Z,0.00
2022-08-09T00:18:18.974Z,0.00
2022-08-09T00:19:18.407Z,0.00
2022-08-09T00:20:17.946Z,0.00
2022-08-09T00:21:17.934Z,0.00
2022-08-09T00:22:18.150Z,0.00
2022-08-09T00:23:56.553Z,0.00
2022-08-09T00:24:18.894Z,0.00
2022-08-09T00:25:23.612Z,0.00
2022-08-09T00:26:18.875Z,0.00
2022-08-09T00:27:18.846Z,0.00
2022-08-09T00:28:17.826Z,0.00
2022-08-09T00:29:39.445Z,0.00
2022-08-09T00:30:26.030Z,0.00
2022-08-09T00:31:55.782Z,0.00
2022-08-09T00:32:25.744Z,0.00
2022-08-09T00:33:18.768Z,0.00
2022-08-09T00:34:19.252Z,0.00
2022-08-09T00:35:17.737Z,0.00
2022-08-09T00:36:17.758Z,0.00
2022-08-09T00:37:17.709Z,0.00
2022-08-09T00:38:21.478Z,0.00
2022-08-09T00:40:09.133Z,0.00
2022-08-09T00:40:19.708Z,0.00
2022-08-09T00:44:08.064Z,0.00
2022-08-09T00:44:13.226Z,0.00
2022-08-09T00:44:15.133Z,0.00
2022-08-09T00:44:26.899Z,0.00
2022-08-09T00:45:20.259Z,0.00
2022-08-09T00:46:28.313Z,0.00
2022-08-09T00:47:18.580Z,0.00
2022-08-09T00:48:19.393Z,0.00
2022-08-09T00:49:17.564Z,0.00
2022-08-09T00:50:17.560Z,0.00
2022-08-09T00:51:17.552Z,0.00
2022-08-09T00:52:17.968Z,0.00
2022-08-09T00:53:17.510Z,0.00
2022-08-09T00:54:18.501Z,0.00
2022-08-09T00:55:54.264Z,0.00
2022-08-09T00:56:18.481Z,0.00
2022-08-09T00:57:24.652Z,0.00
2022-08-09T00:58:22.178Z,0.00
2022-08-09T00:59:20.249Z,0.00
2022-08-09T01:00:21.952Z,0.00
2022-08-09T01:01:18.483Z,0.00
2022-08-09T01:02:17.403Z,0.00
2022-08-09T01:03:17.384Z,0.00
2022-08-09T01:04:17.380Z,0.00
2022-08-09T01:05:22.053Z,0.00
2022-08-09T01:06:18.696Z,0.00
2022-08-09T01:07:17.333Z,0.00
2022-08-09T01:08:17.326Z,0.00
2022-08-09T01:09:18.294Z,0.00
2022-08-09T01:10:17.305Z,0.00
2022-08-09T01:11:17.284Z,0.00
2022-08-09T01:12:17.274Z,0.00
2022-08-09T01:13:17.245Z,0.00
2022-08-09T01:14:18.292Z,0.00
2022-08-09T01:15:17.642Z,0.00
2022-08-09T01:16:17.228Z,0.00
2022-08-09T01:17:18.016Z,0.00
2022-08-09T01:18:17.177Z,0.00
2022-08-09T01:19:40.278Z,0.00
2022-08-09T01:20:18.154Z,0.00
2022-08-09T01:21:17.165Z,0.00
2022-08-09T01:22:17.134Z,0.00
2022-08-09T01:24:02.652Z,0.00
2022-08-09T01:24:18.136Z,0.00
2022-08-09T01:25:17.656Z,0.00
2022-08-09T01:26:17.077Z,0.00
2022-08-09T01:27:17.795Z,0.00
2022-08-09T01:28:17.058Z,0.00
2022-08-09T01:29:17.037Z,0.00
2022-08-09T01:30:28.696Z,0.00
2022-08-09T01:32:28.021Z,0.00
2022-08-09T01:32:33.476Z,0.00
2022-08-09T01:33:17.979Z,0.00
2022-08-09T01:34:16.979Z,0.00
2022-08-09T01:35:28.269Z,0.00
2022-08-09T01:36:17.947Z,0.00
2022-08-09T01:37:16.949Z,0.00
2022-08-09T01:38:17.927Z,0.00
2022-08-09T01:39:17.029Z,0.00
2022-08-09T01:40:22.990Z,0.00
2022-08-09T01:41:17.881Z,0.00
2022-08-09T01:42:16.906Z,0.00
2022-08-09T01:43:16.862Z,0.00
2022-08-09T01:44:16.840Z,0.00
2022-08-09T01:45:16.830Z,0.00
2022-08-09T01:46:18.334Z,0.00
2022-08-09T01:47:17.811Z,0.00
2022-08-09T01:48:16.782Z,0.00
2022-08-09T01:49:16.764Z,0.00
2022-08-09T01:50:17.146Z,0.00
2022-08-09T01:51:23.028Z,0.00
2022-08-09T01:52:17.755Z,0.00
2022-08-09T01:53:19.834Z,0.00
2022-08-09T01:54:16.711Z,0.00
2022-08-09T01:55:16.682Z,0.00
2022-08-09T01:56:16.696Z,0.00
2022-08-09T01:57:16.672Z,0.00
2022-08-09T01:58:16.672Z,0.00
2022-08-09T01:59:16.644Z,0.00
2022-08-09T02:00:34.543Z,0.00
2022-08-09T02:01:18.346Z,0.00
2022-08-09T02:02:16.648Z,0.00
2022-08-09T02:03:16.606Z,0.00
2022-08-09T02:04:16.584Z,0.00
2022-08-09T02:05:16.571Z,0.00
2022-08-09T02:06:16.547Z,0.00
2022-08-09T02:08:34.869Z,0.00
2022-08-09T02:08:38.948Z,0.00
2022-08-09T02:09:17.519Z,0.00
2022-08-09T02:10:16.499Z,0.00
2022-08-09T02:11:17.126Z,0.00
2022-08-09T02:12:18.047Z,0.00
2022-08-09T02:13:16.482Z,0.00
2022-08-09T02:14:26.593Z,0.00
2022-08-09T02:15:17.437Z,0.00
2022-08-09T02:16:16.417Z,0.00
2022-08-09T02:17:59.905Z,0.00
2022-08-09T02:18:17.418Z,0.00
2022-08-09T02:19:16.377Z,0.00
2022-08-09T02:20:25.071Z,0.00
2022-08-09T02:21:22.186Z,0.00
2022-08-09T02:22:17.358Z,0.00
2022-08-09T02:23:17.327Z,0.00
2022-08-09T02:24:25.781Z,0.00
2022-08-09T02:25:17.298Z,0.00
2022-08-09T02:26:25.117Z,0.00
2022-08-09T02:27:18.578Z,0.00
2022-08-09T02:28:17.897Z,0.00
2022-08-09T02:29:16.252Z,0.00
2022-08-09T02:30:16.239Z,0.00
2022-08-09T02:31:16.235Z,0.00
2022-08-09T02:32:16.209Z,0.00
2022-08-09T02:33:16.892Z,0.00
2022-08-09T02:34:25.731Z,0.00
2022-08-09T02:35:18.267Z,0.00
2022-08-09T02:36:16.159Z,0.00
2022-08-09T02:37:16.139Z,0.00
2022-08-09T02:38:27.842Z,0.00
2022-08-09T02:39:20.059Z,0.00
2022-08-09T02:40:24.789Z,0.00
2022-08-09T02:41:17.160Z,0.00
2022-08-09T02:42:16.086Z,0.00
2022-08-09T02:43:16.141Z,0.00
2022-08-09T02:44:25.574Z,0.00
2022-08-09T02:45:17.057Z,0.00
2022-08-09T02:46:16.070Z,0.00
2022-08-09T02:47:16.003Z,0.00
2022-08-09T02:48:19.617Z,0.00
2022-08-09T02:49:17.044Z,0.00
2022-08-09T02:50:15.972Z,0.00
2022-08-09T02:51:40.490Z,0.00
2022-08-09T02:52:16.060Z,0.00
2022-08-09T02:53:17.259Z,0.00
2022-08-09T02:54:16.972Z,0.00
2022-08-09T02:55:20.971Z,0.00
2022-08-09T02:56:16.885Z,0.00
2022-08-09T02:57:23.257Z,0.00
2022-08-09T02:58:32.424Z,0.00
2022-08-09T02:59:26.328Z,0.00
2022-08-09T03:00:25.655Z,0.00
2022-08-09T03:01:21.875Z,0.00
2022-08-09T03:02:17.978Z,0.00
2022-08-09T03:03:21.533Z,0.00
2022-08-09T03:04:19.812Z,0.00
2022-08-09T03:05:16.578Z,0.00
2022-08-09T03:06:15.754Z,0.00
2022-08-09T03:07:15.751Z,0.00
2022-08-09T03:08:15.736Z,0.00
2022-08-09T03:09:15.754Z,0.00
2022-08-09T03:10:15.719Z,0.00
2022-08-09T03:12:05.398Z,0.00
2022-08-09T03:12:16.707Z,0.00
2022-08-09T03:13:15.796Z,0.00
2022-08-09T03:14:15.938Z,0.00
2022-08-09T03:15:16.726Z,0.00
2022-08-09T03:16:15.637Z,0.00
2022-08-09T03:17:16.491Z,0.00
2022-08-09T03:18:16.599Z,0.00
2022-08-09T03:19:52.607Z,0.00
2022-08-09T03:20:16.580Z,0.00
2022-08-09T03:21:15.573Z,0.00
2022-08-09T03:22:24.882Z,0.00
2022-08-09T03:23:24.731Z,0.00
2022-08-09T03:24:25.996Z,0.00
2022-08-09T03:25:26.850Z,0.00
2022-08-09T03:26:16.574Z,0.00
2022-08-09T03:27:17.030Z,0.00
2022-08-09T03:28:15.469Z,0.00
2022-08-09T03:29:23.192Z,0.00
2022-08-09T03:30:29.616Z,0.00
2022-08-09T03:31:22.550Z,0.00
2022-08-09T03:32:16.420Z,0.00
2022-08-09T03:33:19.146Z,0.00
2022-08-09T03:34:15.401Z,0.00
2022-08-09T03:35:24.819Z,0.00
2022-08-09T03:36:17.348Z,0.00
2022-08-09T03:37:54.388Z,0.00
2022-08-09T03:38:29.182Z,0.00
2022-08-09T03:39:16.531Z,0.00
2022-08-09T03:40:17.848Z,0.00
2022-08-09T03:41:16.359Z,0.00
2022-08-09T03:42:15.291Z,0.00
2022-08-09T03:43:15.285Z,0.00
2022-08-09T03:44:15.646Z,0.00
2022-08-09T03:45:15.630Z,0.00
2022-08-09T03:46:20.784Z,0.00
2022-08-09T03:47:16.232Z,0.00
2022-08-09T03:48:18.976Z,0.00
2022-08-09T03:49:17.465Z,0.00
2022-08-09T04:03:00.196Z,0.00
2022-08-09T04:04:01.286Z,0.00
2022-08-09T04:05:00.660Z,0.00
2022-08-09T04:06:00.123Z,0.00
2022-08-09T04:07:00.102Z,0.00
2022-08-09T04:08:00.103Z,0.00
2022-08-09T04:09:00.076Z,0.00
2022-08-09T04:10:00.070Z,0.00
2022-08-09T04:11:01.706Z,0.00
2022-08-09T04:12:02.633Z,5.62
2022-08-09T04:13:01.108Z,5.62
2022-08-09T04:14:53.871Z,5.62
2022-08-09T04:15:11.433Z,5.62
2022-08-09T04:16:19.390Z,5.62
2022-08-09T04:17:01.713Z,5.62
2022-08-09T04:18:00.909Z,5.62
2022-08-09T04:18:59.933Z,5.62
2022-08-09T04:20:02.679Z,5.62
2022-08-09T04:20:59.932Z,5.62
2022-08-09T04:21:59.902Z,5.62
2022-08-09T04:22:59.884Z,5.62
2022-08-09T04:23:59.872Z,5.62
2022-08-09T04:24:59.861Z,5.62
2022-08-09T04:25:59.853Z,5.62
2022-08-09T04:26:59.833Z,5.62
2022-08-09T04:28:03.499Z,5.62
2022-08-09T04:29:03.703Z,5.62
2022-08-09T04:30:00.808Z,5.62
2022-08-09T04:30:59.804Z,5.62
2022-08-09T04:32:00.769Z,5.62
2022-08-09T04:32:59.744Z,5.62
2022-08-09T04:33:59.738Z,11.25
2022-08-09T04:35:01.318Z,11.25
2022-08-09T04:35:59.744Z,11.25
2022-08-09T04:36:59.685Z,11.25
2022-08-09T04:37:59.685Z,11.25
2022-08-09T04:38:59.664Z,11.25
2022-08-09T04:39:59.665Z,11.25
2022-08-09T04:40:59.654Z,11.25
2022-08-09T04:41:59.981Z,11.25
2022-08-09T04:42:59.626Z,11.25
2022-08-09T04:44:06.289Z,11.25
2022-08-09T04:45:00.586Z,11.25
2022-08-09T04:45:59.598Z,11.25
2022-08-09T04:47:05.714Z,11.25
2022-08-09T04:48:03.045Z,11.25
2022-08-09T04:48:59.530Z,11.25
2022-08-09T04:49:59.518Z,11.25
2022-08-09T04:50:59.510Z,11.25
2022-08-09T04:51:59.583Z,11.25
2022-08-09T04:52:59.477Z,11.25
2022-08-09T04:53:59.493Z,11.25
2022-08-09T04:54:59.510Z,11.25
2022-08-09T04:55:59.710Z,11.25
2022-08-09T04:57:01.272Z,11.25
2022-08-09T04:58:01.796Z,11.25
2022-08-09T04:59:03.702Z,16.88
2022-08-09T05:00:00.387Z,16.88
2022-08-09T05:00:59.388Z,16.88
2022-08-09T05:02:03.036Z,16.88
2022-08-09T05:02:59.339Z,16.88
2022-08-09T05:04:00.361Z,16.88
2022-08-09T05:05:09.891Z,16.88
2022-08-09T05:06:06.479Z,16.88
2022-08-09T05:07:00.429Z,16.88
2022-08-09T05:07:59.289Z,16.88
2022-08-09T05:09:00.882Z,16.88
2022-08-09T05:09:59.262Z,16.88
2022-08-09T05:11:01.147Z,16.88
2022-08-09T05:12:02.163Z,16.88
2022-08-09T05:12:59.228Z,16.88
2022-08-09T05:13:59.203Z,16.88
2022-08-09T05:14:59.203Z,16.88
2022-08-09T05:15:59.199Z,16.88
2022-08-09T05:16:59.731Z,16.88
2022-08-09T05:18:50.658Z,16.88
2022-08-09T05:19:00.762Z,16.88
2022-08-09T05:19:59.126Z,16.88
2022-08-09T05:20:59.121Z,16.88
2022-08-09T05:21:59.159Z,16.88
2022-08-09T05:23:55.480Z,16.88
2022-08-09T05:24:01.952Z,16.88
2022-08-09T05:25:00.874Z,16.88
2022-08-09T05:25:59.057Z,16.88
2022-08-09T05:26:59.024Z,16.88
2022-08-09T05:27:59.016Z,16.88
2022-08-09T05:28:59.014Z,22.50
2022-08-09T05:29:59.133Z,22.50
2022-08-09T05:30:58.985Z,22.50
2022-08-09T05:31:58.963Z,22.50
2022-08-09T05:32:58.964Z,22.50
2022-08-09T05:33:58.954Z,22.50
2022-08-09T05:34:58.915Z,22.50
2022-08-09T05:35:58.928Z,22.50
2022-08-09T05:36:58.918Z,22.50
2022-08-09T05:37:58.895Z,22.50
2022-08-09T05:38:58.859Z,22.50
2022-08-09T05:39:58.918Z,22.50
2022-08-09T05:40:58.855Z,22.50
2022-08-09T05:42:01.716Z,22.50
2022-08-09T05:42:59.818Z,22.50
2022-08-09T05:43:58.807Z,22.50
2022-08-09T05:44:58.787Z,22.50
2022-08-09T05:45:58.796Z,22.50
2022-08-09T05:46:58.766Z,22.50
2022-08-09T05:48:01.168Z,22.50
2022-08-09T05:48:59.303Z,22.50
2022-08-09T05:50:30.248Z,22.50
2022-08-09T05:51:16.965Z,22.50
2022-08-09T05:51:59.716Z,22.50
2022-08-09T05:52:58.679Z,22.50
2022-08-09T05:53:58.671Z,22.50
2022-08-09T05:55:03.088Z,22.50
2022-08-09T05:56:01.645Z,22.50
2022-08-09T05:56:58.671Z,22.50
2022-08-09T05:57:58.783Z,22.50
2022-08-09T05:58:59.097Z,28.12
2022-08-09T05:59:58.640Z,28.12
2022-08-09T06:00:58.594Z,28.12
2022-08-09T06:01:58.941Z,28.12
2022-08-09T06:02:58.802Z,28.12
2022-08-09T06:03:58.923Z,28.12
2022-08-09T06:04:58.536Z,28.12
2022-08-09T06:06:06.095Z,28.12
2022-08-09T06:06:59.512Z,28.12
2022-08-09T06:08:05.427Z,28.12
2022-08-09T06:08:59.482Z,28.12
2022-08-09T06:10:02.419Z,28.12
2022-08-09T06:10:59.203Z,28.12
2022-08-09T06:11:58.442Z,28.12
2022-08-09T06:13:11.788Z,28.12
2022-08-09T06:13:59.422Z,28.12
2022-08-09T06:15:01.230Z,28.12
2022-08-09T06:15:58.392Z,28.12
2022-08-09T06:16:58.408Z,28.12
2022-08-09T06:17:58.364Z,28.12
2022-08-09T06:18:58.343Z,28.12
2022-08-09T06:19:58.356Z,28.12
2022-08-09T06:20:58.695Z,28.12
2022-08-09T06:21:59.097Z,28.12
2022-08-09T06:22:58.316Z,28.12
2022-08-09T06:24:02.596Z,28.12
2022-08-09T06:24:58.278Z,28.12
2022-08-09T06:25:58.275Z,28.12
2022-08-09T06:26:58.262Z,33.75
2022-08-09T06:27:58.237Z,33.75
2022-08-09T06:29:00.148Z,33.75
2022-08-09T06:30:08.760Z,33.75
2022-08-09T06:30:59.230Z,33.75
2022-08-09T06:32:08.343Z,33.75
2022-08-09T06:33:29.978Z,33.75
2022-08-09T06:33:59.164Z,33.75
2022-08-09T06:34:58.137Z,33.75
2022-08-09T06:35:58.561Z,33.75
2022-08-09T06:36:59.807Z,33.75
2022-08-09T06:38:06.723Z,33.75
2022-08-09T06:38:59.086Z,33.75
2022-08-09T06:40:01.295Z,33.75
2022-08-09T06:40:59.096Z,33.75
2022-08-09T06:42:08.549Z,33.75
2022-08-09T06:42:59.036Z,33.75
2022-08-09T06:43:58.020Z,33.75
2022-08-09T06:44:57.998Z,33.75
2022-08-09T06:46:05.939Z,33.75
2022-08-09T06:46:58.968Z,33.75
2022-08-09T06:48:01.411Z,33.75
2022-08-09T06:49:00.223Z,33.75
2022-08-09T06:50:13.689Z,33.75
2022-08-09T06:50:58.982Z,33.75
2022-08-09T06:51:57.921Z,33.75
2022-08-09T06:52:57.902Z,33.75
2022-08-09T06:53:59.694Z,33.75
2022-08-09T06:54:57.905Z,33.75
2022-08-09T06:55:57.903Z,33.75
2022-08-09T06:56:57.842Z,33.75
2022-08-09T06:58:02.483Z,33.75
2022-08-09T07:00:49.991Z,33.75
2022-08-09T07:00:50.473Z,33.75
2022-08-09T07:00:59.879Z,33.75
2022-08-09T07:02:03.450Z,33.75
2022-08-09T07:02:58.766Z,33.75
2022-08-09T07:04:03.701Z,33.75
2022-08-09T07:04:58.763Z,33.75
2022-08-09T07:06:02.962Z,33.75
2022-08-09T07:06:59.951Z,33.75
2022-08-09T07:08:00.742Z,33.75
2022-08-09T07:08:57.685Z,33.75
2022-08-09T07:10:11.500Z,33.75
2022-08-09T07:10:58.676Z,39.38
2022-08-09T07:11:57.654Z,39.38
2022-08-09T07:12:58.340Z,39.38
2022-08-09T07:14:05.516Z,39.38
2022-08-09T07:14:58.638Z,39.38
2022-08-09T07:16:41.669Z,39.38
2022-08-09T07:16:58.698Z,39.38
2022-08-09T07:18:02.399Z,39.38
2022-08-09T07:18:58.557Z,39.38
2022-08-09T07:19:57.548Z,39.38
2022-08-09T07:20:57.540Z,39.38
2022-08-09T07:21:59.025Z,39.38
2022-08-09T07:22:57.863Z,39.38
2022-08-09T07:23:58.345Z,39.38
2022-08-09T07:24:57.479Z,39.38
2022-08-09T07:26:02.653Z,39.38
2022-08-09T07:26:58.449Z,39.38
2022-08-09T07:27:57.429Z,39.38
2022-08-09T07:29:08.289Z,39.38
2022-08-09T07:29:58.746Z,39.38
2022-08-09T07:30:57.418Z,39.38
2022-08-09T07:31:57.370Z,39.38
2022-08-09T07:32:57.380Z,39.38
2022-08-09T07:33:57.368Z,39.38
2022-08-09T07:34:57.349Z,39.38
2022-08-09T07:35:57.329Z,39.38
2022-08-09T07:36:57.322Z,39.38
2022-08-09T07:37:59.498Z,39.38
2022-08-09T07:39:01.041Z,39.38
2022-08-09T07:39:58.344Z,39.38
2022-08-09T07:41:11.399Z,39.38
2022-08-09T07:41:58.245Z,39.38
2022-08-09T07:42:57.256Z,39.38
2022-08-09T07:43:57.234Z,39.38
2022-08-09T07:45:01.369Z,39.38
2022-08-09T07:46:02.039Z,39.38
2022-08-09T07:46:58.212Z,39.38
2022-08-09T07:48:01.745Z,39.38
2022-08-09T07:48:59.556Z,39.38
2022-08-09T07:50:08.345Z,39.38
2022-08-09T07:51:09.441Z,39.38
2022-08-09T07:52:06.260Z,39.38
2022-08-09T07:53:02.317Z,39.38
2022-08-09T07:54:06.829Z,39.38
2022-08-09T07:54:58.097Z,39.38
2022-08-09T07:56:06.008Z,39.38
2022-08-09T07:56:58.577Z,45.00
2022-08-09T07:57:57.025Z,45.00
2022-08-09T07:58:57.037Z,45.00
2022-08-09T08:00:02.955Z,45.00
2022-08-09T08:01:05.938Z,45.00
2022-08-09T08:01:58.069Z,45.00
2022-08-09T08:02:56.998Z,45.00
2022-08-09T08:03:56.958Z,45.00
2022-08-09T08:04:56.967Z,45.00
2022-08-09T08:05:57.818Z,45.00
2022-08-09T08:07:00.313Z,45.00
2022-08-09T08:08:43.660Z,45.00
2022-08-09T08:09:03.549Z,45.00
2022-08-09T08:10:07.848Z,45.00
2022-08-09T08:11:15.411Z,45.00
2022-08-09T08:12:24.493Z,45.00
2022-08-09T08:12:57.851Z,45.00
2022-08-09T08:13:57.643Z,45.00
2022-08-09T08:14:57.023Z,45.00
2022-08-09T08:15:56.829Z,45.00
2022-08-09T08:17:00.696Z,45.00
2022-08-09T08:17:58.123Z,50.62
2022-08-09T08:18:56.785Z,50.62
2022-08-09T08:19:56.762Z,50.62
2022-08-09T08:20:56.776Z,50.62
2022-08-09T08:21:56.772Z,50.62
2022-08-09T08:23:01.334Z,50.62
2022-08-09T08:24:01.447Z,50.62
2022-08-09T08:24:57.714Z,50.62
2022-08-09T08:26:08.026Z,50.62
2022-08-09T08:26:57.701Z,50.62
2022-08-09T08:27:56.673Z,50.62
2022-08-09T08:28:56.645Z,50.62
2022-08-09T08:29:56.647Z,50.62
2022-08-09T08:30:56.642Z,50.62
2022-08-09T08:32:04.116Z,50.62
2022-08-09T08:32:57.614Z,50.62
2022-08-09T08:33:56.576Z,50.62
2022-08-09T08:34:59.010Z,50.62
2022-08-09T08:35:59.143Z,50.62
2022-08-09T08:36:56.584Z,50.62
2022-08-09T08:38:04.905Z,56.25
2022-08-09T08:38:57.532Z,56.25
2022-08-09T08:39:56.554Z,56.25
2022-08-09T08:40:56.511Z,56.25
2022-08-09T08:41:58.967Z,56.25
2022-08-09T08:42:58.301Z,56.25
2022-08-09T08:44:00.587Z,56.25
2022-08-09T08:44:57.438Z,56.25
2022-08-09T08:46:04.111Z,61.88
2022-08-09T08:47:02.349Z,61.88
2022-08-09T08:47:59.059Z,61.88
2022-08-09T08:48:56.379Z,61.88
2022-08-09T08:49:56.359Z,61.88
2022-08-09T08:50:57.411Z,61.88
2022-08-09T08:52:00.219Z,61.88
2022-08-09T08:53:00.261Z,61.88
2022-08-09T08:54:04.376Z,67.50
2022-08-09T08:54:57.319Z,67.50
2022-08-09T08:55:56.311Z,67.50
2022-08-09T08:56:56.301Z,67.50
2022-08-09T08:57:58.310Z,67.50
2022-08-09T08:58:56.273Z,67.50
2022-08-09T08:59:57.375Z,73.12
2022-08-09T09:00:56.624Z,73.12
2022-08-09T09:01:57.528Z,73.12
2022-08-09T09:02:56.264Z,73.12
2022-08-09T09:03:56.265Z,73.12
2022-08-09T09:04:56.183Z,78.75
2022-08-09T09:06:00.149Z,78.75
2022-08-09T09:06:57.151Z,78.75
2022-08-09T09:07:56.155Z,78.75
2022-08-09T09:08:59.677Z,78.75
2022-08-09T09:10:02.091Z,78.75
2022-08-09T09:10:57.105Z,84.38
2022-08-09T09:11:56.099Z,84.38
2022-08-09T09:12:56.120Z,84.38
2022-08-09T09:13:58.443Z,84.38
2022-08-09T09:14:56.051Z,84.38
2022-08-09T09:15:56.029Z,84.38
2022-08-09T09:16:56.018Z,84.38
2022-08-09T09:17:56.015Z,84.38
2022-08-09T09:19:15.667Z,84.38
2022-08-09T09:19:56.990Z,84.38
2022-08-09T09:20:55.977Z,84.38
2022-08-09T09:21:55.968Z,84.38
2022-08-09T09:22:55.948Z,90.00
2022-08-09T09:23:58.125Z,90.00
2022-08-09T09:26:00.407Z,90.00
2022-08-09T09:26:03.275Z,90.00
2022-08-09T09:26:56.899Z,90.00
2022-08-09T09:28:06.117Z,95.62
2022-08-09T09:29:04.525Z,95.62
2022-08-09T09:30:27.472Z,95.62
2022-08-09T09:30:57.308Z,95.62
2022-08-09T09:32:03.416Z,95.62
2022-08-09T09:32:56.811Z,95.62
2022-08-09T09:33:56.968Z,101.25
2022-08-09T09:34:55.781Z,101.25
2022-08-09T09:36:00.862Z,101.25
2022-08-09T09:36:56.752Z,101.25
2022-08-09T09:37:55.740Z,101.25
2022-08-09T09:38:55.746Z,106.88
2022-08-09T09:39:57.159Z,106.88
2022-08-09T09:40:55.724Z,106.88
2022-08-09T09:41:55.714Z,106.88
2022-08-09T09:42:55.691Z,106.88
2022-08-09T09:44:12.989Z,106.88
2022-08-09T09:44:56.668Z,106.88
2022-08-09T09:46:38.852Z,106.88
2022-08-09T09:46:56.630Z,112.50
2022-08-09T10:03:34.355Z,118.12
2022-08-09T10:04:34.299Z,118.12
2022-08-09T10:06:04.104Z,123.75
2022-08-09T10:06:35.281Z,123.75
2022-08-09T10:07:34.446Z,123.75
2022-08-09T10:08:43.209Z,123.75
2022-08-09T10:09:35.214Z,123.75
2022-08-09T10:10:34.331Z,123.75
2022-08-09T10:12:00.528Z,123.75
2022-08-09T10:12:35.184Z,123.75
2022-08-09T10:13:45.217Z,129.38
2022-08-09T10:14:35.172Z,129.38
2022-08-09T10:16:08.754Z,129.38
2022-08-09T10:16:57.313Z,129.38
2022-08-09T10:17:51.489Z,129.38
2022-08-09T10:18:35.094Z,129.38
2022-08-09T10:19:34.094Z,129.38
2022-08-09T10:20:37.266Z,129.38
2022-08-09T10:21:35.105Z,135.00
2022-08-09T10:22:34.480Z,135.00
2022-08-09T10:23:34.035Z,135.00
2022-08-09T10:24:35.554Z,135.00
2022-08-09T10:25:34.712Z,135.00
2022-08-09T10:26:35.017Z,135.00
2022-08-09T10:27:34.748Z,135.00
2022-08-09T10:28:34.978Z,135.00
2022-08-09T10:30:43.581Z,140.62
2022-08-09T10:32:40.062Z,140.62
2022-08-09T10:34:09.005Z,140.62
2022-08-09T10:34:36.077Z,140.62
2022-08-09T10:35:33.888Z,140.62
2022-08-09T10:36:33.892Z,140.62
2022-08-09T10:37:33.870Z,140.62
2022-08-09T10:38:56.937Z,146.25
2022-08-09T10:39:40.856Z,146.25
2022-08-09T10:40:37.705Z,146.25
2022-08-09T10:41:34.822Z,146.25
2022-08-09T10:42:34.111Z,146.25
2022-08-09T10:43:36.183Z,146.25
2022-08-09T10:44:34.785Z,151.88
2022-08-09T10:45:35.334Z,151.88
2022-08-09T10:46:33.760Z,151.88
2022-08-09T10:48:19.619Z,151.88
2022-08-09T10:48:36.283Z,151.88
2022-08-09T10:49:50.229Z,151.88
2022-08-09T10:50:34.712Z,151.88
2022-08-09T10:51:41.024Z,151.88
2022-08-09T10:52:34.903Z,151.88
2022-08-09T10:53:38.109Z,151.88
2022-08-09T10:54:34.655Z,151.88
2022-08-09T10:55:35.851Z,151.88
2022-08-09T10:56:34.636Z,151.88
2022-08-09T10:57:33.813Z,151.88
2022-08-09T10:58:34.894Z,151.88
2022-08-09T10:59:55.528Z,151.88
2022-08-09T11:00:34.576Z,157.50
2022-08-09T11:03:14.671Z,157.50
2022-08-09T11:03:14.819Z,157.50
2022-08-09T11:03:49.660Z,157.50
2022-08-09T11:04:34.589Z,157.50
2022-08-09T11:05:33.543Z,157.50
2022-08-09T11:06:33.509Z,157.50
2022-08-09T11:07:57.122Z,157.50
2022-08-09T11:08:34.489Z,163.12
2022-08-09T11:09:37.234Z,163.12
2022-08-09T11:10:33.460Z,163.12
2022-08-09T11:11:33.439Z,163.12
2022-08-09T11:12:34.819Z,163.12
2022-08-09T11:13:54.158Z,163.12
2022-08-09T11:14:34.413Z,163.12
2022-08-09T11:15:34.143Z,168.75
2022-08-09T11:16:35.026Z,168.75
2022-08-09T11:17:33.372Z,168.75
2022-08-09T11:18:34.352Z,168.75
2022-08-09T11:20:07.929Z,168.75
2022-08-09T11:20:34.327Z,168.75
2022-08-09T11:21:33.771Z,168.75
2022-08-09T11:22:33.344Z,168.75
2022-08-09T11:23:33.419Z,168.75
2022-08-09T11:24:33.292Z,174.38
2022-08-09T11:25:45.648Z,174.38
2022-08-09T11:26:34.270Z,174.38
2022-08-09T11:28:05.275Z,174.38
2022-08-09T11:28:38.344Z,174.38
2022-08-09T11:30:05.647Z,174.38
2022-08-09T11:30:35.916Z,174.38
2022-08-09T11:31:34.221Z,174.38
2022-08-09T11:32:33.488Z,174.38
2022-08-09T11:33:33.168Z,180.00
2022-08-09T11:34:33.368Z,180.00
2022-08-09T11:35:35.147Z,180.00
2022-08-09T11:36:35.888Z,180.00
2022-08-09T11:37:41.546Z,180.00
2022-08-09T11:38:34.863Z,180.00
2022-08-09T11:39:38.033Z,180.00
2022-08-09T11:40:34.069Z,180.00
2022-08-09T11:41:38.362Z,180.00
2022-08-09T11:42:34.463Z,180.00
2022-08-09T11:43:33.120Z,185.62
2022-08-09T11:44:33.031Z,185.62
2022-08-09T11:45:37.895Z,185.62
2022-08-09T11:46:34.009Z,185.62
2022-08-09T11:47:32.985Z,185.62
2022-08-09T11:48:32.985Z,185.62
2022-08-09T11:49:42.553Z,185.62
2022-08-09T11:50:56.945Z,185.62
2022-08-09T11:53:11.448Z,191.25
2022-08-09T11:53:55.122Z,185.62
2022-08-09T11:54:00.550Z,191.25
2022-08-09T11:54:35.033Z,191.25
2022-08-09T11:55:39.972Z,191.25
2022-08-09T11:56:41.690Z,191.25
2022-08-09T11:57:47.801Z,191.25
2022-08-09T11:58:34.017Z,191.25
2022-08-09T11:59:33.641Z,191.25
2022-08-09T12:00:32.819Z,191.25
2022-08-09T12:02:17.752Z,191.25
2022-08-09T12:02:37.558Z,191.25
2022-08-09T12:03:56.725Z,191.25
2022-08-09T12:04:37.198Z,191.25
2022-08-09T12:05:37.643Z,191.25
2022-08-09T12:06:35.085Z,196.88
2022-08-09T12:07:41.581Z,196.88
2022-08-09T12:08:33.718Z,196.88
2022-08-09T12:09:33.895Z,196.88
2022-08-09T12:10:39.695Z,196.88
2022-08-09T12:11:37.918Z,196.88
2022-08-09T12:12:33.649Z,196.88
2022-08-09T12:14:09.153Z,196.88
2022-08-09T12:14:40.487Z,196.88
2022-08-09T12:15:49.635Z,202.50
2022-08-09T12:16:38.329Z,202.50
2022-08-09T12:17:41.503Z,202.50
2022-08-09T12:18:33.841Z,202.50
2022-08-09T12:19:32.565Z,202.50
2022-08-09T12:20:32.553Z,202.50
2022-08-09T12:21:38.703Z,202.50
2022-08-09T12:22:33.670Z,202.50
2022-08-09T12:23:56.200Z,202.50
2022-08-09T12:24:33.513Z,202.50
2022-08-09T12:25:37.339Z,208.12
2022-08-09T12:26:33.474Z,208.12
2022-08-09T12:29:11.904Z,208.12
2022-08-09T12:29:14.955Z,208.12
2022-08-09T12:29:44.687Z,202.50
2022-08-09T12:30:37.070Z,202.50
2022-08-09T12:32:03.273Z,202.50
2022-08-09T12:32:34.249Z,202.50
2022-08-09T12:33:51.466Z,202.50
2022-08-09T12:34:33.386Z,202.50
2022-08-09T12:35:37.797Z,202.50
2022-08-09T12:36:33.588Z,202.50
2022-08-09T12:37:32.387Z,202.50
2022-08-09T12:38:38.177Z,202.50
2022-08-09T12:39:33.432Z,202.50
2022-08-09T12:40:32.307Z,202.50
2022-08-09T12:41:38.254Z,202.50
2022-08-09T12:42:33.474Z,202.50
2022-08-09T12:44:05.980Z,202.50
2022-08-09T12:44:37.521Z,202.50
2022-08-09T12:45:38.627Z,208.12
2022-08-09T12:46:33.231Z,202.50
2022-08-09T12:47:37.089Z,202.50
2022-08-09T12:48:33.206Z,202.50
2022-08-09T12:49:32.202Z,202.50
2022-08-09T12:50:32.185Z,202.50
2022-08-09T12:52:00.345Z,202.50
2022-08-09T12:52:44.216Z,208.12
2022-08-09T12:53:37.739Z,208.12
2022-08-09T12:54:33.158Z,208.12
2022-08-09T12:56:15.023Z,208.12
2022-08-09T12:56:48.595Z,208.12
2022-08-09T12:57:33.095Z,208.12
2022-08-09T12:58:33.075Z,208.12
2022-08-09T12:59:58.014Z,208.12
2022-08-09T13:00:33.066Z,208.12
2022-08-09T13:01:32.105Z,208.12
2022-08-09T13:02:32.254Z,208.12
2022-08-09T13:03:53.471Z,208.12
2022-08-09T13:04:38.037Z,208.12
2022-08-09T13:05:35.594Z,208.12
2022-08-09T13:06:33.943Z,213.75
2022-08-09T13:07:51.246Z,213.75
2022-08-09T13:08:40.091Z,213.75
2022-08-09T13:09:32.969Z,208.12
2022-08-09T13:10:34.767Z,213.75
2022-08-09T13:11:31.919Z,213.75
2022-08-09T13:12:32.377Z,213.75
2022-08-09T13:14:11.812Z,213.75
2022-08-09T13:14:40.761Z,213.75
2022-08-09T13:15:33.989Z,213.75
2022-08-09T13:16:31.857Z,213.75
2022-08-09T13:18:03.430Z,213.75
2022-08-09T13:18:32.831Z,219.38
2022-08-09T13:20:06.505Z,219.38
2022-08-09T13:20:37.495Z,219.38
2022-08-09T13:22:36.093Z,225.00
2022-08-09T13:22:37.548Z,230.62
2022-08-09T13:24:17.397Z,236.25
2022-08-09T13:24:44.527Z,241.88